Time;durP1;ratioP1;P1;durP2;ratioP2;P2;SDS_P1;SDS_P2;PMS_P1;PMS_P2;Temp;Humidity;BMP_temperature;BMP_pressure;BME280_temperature;BME280_humidity;BME280_pressure;Samples;Min_cycle;Max_cycle;Signal;HPM_P1;HPM_P2
2022/08/24 00:04:42;;;;;;;6.28;3.60;;;;;18.90;101267.00;;;;12876911;22;20181;-78
2022/08/24 00:09:47;;;;;;;3.58;3.28;;;;;18.80;101270.00;;;;12855424;22;20188;-78
2022/08/24 00:14:53;;;;;;;5.07;3.60;;;;;18.80;101275.00;;;;12900329;22;20729;-78
2022/08/24 00:19:54;;;;;;;3.85;3.33;;;;;18.80;101273.00;;;;12853056;22;20205;-78
2022/08/24 00:24:55;;;;;;;3.72;3.42;;;;;18.80;101281.00;;;;12828325;22;20824;-78
2022/08/24 00:29:57;;;;;;;6.13;3.83;;;;;18.70;101276.00;;;;12855176;22;20232;-78
2022/08/24 00:34:58;;;;;;;6.88;4.20;;;;;18.70;101272.00;;;;12831807;22;20165;-78
2022/08/24 00:40:01;;;;;;;6.32;3.97;;;;;18.70;101256.00;;;;12925626;22;20200;-77
2022/08/24 00:45:03;;;;;;;8.77;4.57;;;;;18.60;101258.00;;;;12854651;22;20169;-78
2022/08/24 00:50:10;;;;;;;6.07;4.78;;;;;18.60;101265.00;;;;12877989;22;20177;-77
2022/08/24 00:55:16;;;;;;;5.68;4.75;;;;;18.50;101254.00;;;;12853613;22;20177;-78
2022/08/24 01:00:22;;;;;;;5.13;4.63;;;;;18.50;101250.00;;;;12854689;22;20189;-78
2022/08/24 01:05:24;;;;;;;5.03;4.53;;;;;18.40;101240.00;;;;12900501;22;20252;-78
2022/08/24 01:10:29;;;;;;;8.95;4.82;;;;;18.40;101248.00;;;;12852350;22;20277;-77
2022/08/24 01:15:40;;;;;;;5.22;4.57;;;;;18.30;101242.00;;;;12878764;22;20606;-77
2022/08/24 01:20:47;;;;;;;6.55;5.35;;;;;18.30;101245.00;;;;12853509;22;20297;-77
2022/08/24 01:25:48;;;;;;;6.35;4.93;;;;;18.20;101246.00;;;;12829826;22;20180;-78
2022/08/24 01:30:51;;;;;;;8.18;4.85;;;;;18.20;101250.00;;;;12829930;22;20184;-78
2022/08/24 01:35:58;;;;;;;6.35;4.55;;;;;18.10;101244.00;;;;12857120;22;20200;-78
2022/08/24 01:41:02;;;;;;;6.47;4.65;;;;;18.10;101248.00;;;;12904516;22;20181;-78
2022/08/24 01:46:04;;;;;;;9.80;4.93;;;;;18.10;101251.00;;;;12853204;22;20257;-78
2022/08/24 01:51:05;;;;;;;6.13;4.68;;;;;18.00;101240.00;;;;12828266;22;20213;-78
2022/08/24 01:56:12;;;;;;;5.72;5.22;;;;;18.00;101247.00;;;;12923448;22;20161;-78
2022/08/24 02:01:19;;;;;;;8.43;5.53;;;;;17.90;101246.00;;;;12854977;22;20197;-78
2022/08/24 02:06:21;;;;;;;7.03;6.32;;;;;17.90;101240.00;;;;12856155;22;20176;-78
2022/08/24 02:11:22;;;;;;;6.28;5.63;;;;;17.80;101248.00;;;;12856758;22;20544;-78
2022/08/24 02:16:24;;;;;;;10.63;5.53;;;;;17.80;101249.00;;;;12855635;22;20179;-78
2022/08/24 02:21:25;;;;;;;7.88;5.85;;;;;17.80;101246.00;;;;12832121;22;20200;-78
2022/08/24 02:26:26;;;;;;;7.03;5.88;;;;;17.70;101243.00;;;;12882953;22;20173;-78
2022/08/24 02:31:35;;;;;;;6.00;5.30;;;;;17.70;101251.00;;;;12883239;22;20178;-77
2022/08/24 02:36:38;;;;;;;10.98;5.95;;;;;17.70;101234.00;;;;12882170;22;20189;-78
2022/08/24 02:41:39;;;;;;;8.52;5.75;;;;;17.70;101246.00;;;;12884139;22;20301;-78
2022/08/24 02:46:41;;;;;;;5.90;5.30;;;;;17.70;101246.00;;;;12856654;22;20174;-77
2022/08/24 02:51:46;;;;;;;7.53;5.70;;;;;17.60;101234.00;;;;12856244;22;20173;-78
2022/08/24 02:56:51;;;;;;;8.00;6.15;;;;;17.60;101236.00;;;;12854581;22;20177;-77
2022/08/24 03:01:53;;;;;;;7.43;6.22;;;;;17.50;101236.00;;;;12855177;22;20169;-77
2022/08/24 03:06:57;;;;;;;7.15;6.47;;;;;17.50;101243.00;;;;12855158;22;20170;-78
2022/08/24 03:11:59;;;;;;;7.32;6.63;;;;;17.50;101231.00;;;;12854291;22;20688;-78
2022/08/24 03:17:00;;;;;;;8.38;7.47;;;;;17.50;101218.00;;;;12879720;22;20623;-78
2022/08/24 03:22:03;;;;;;;9.48;6.88;;;;;17.40;101219.00;;;;12830265;22;20180;-78
2022/08/24 03:27:05;;;;;;;9.18;6.53;;;;;17.40;101214.00;;;;12879510;22;20177;-78
2022/08/24 03:32:09;;;;;;;8.80;6.38;;;;;17.30;101207.00;;;;12879246;22;20196;-77
2022/08/24 03:37:10;;;;;;;7.15;6.05;;;;;17.30;101209.00;;;;12899227;22;20189;-77
2022/08/24 03:42:12;;;;;;;8.27;5.80;;;;;17.30;101216.00;;;;12854988;22;20181;-78
2022/08/24 03:47:14;;;;;;;9.73;6.32;;;;;17.20;101219.00;;;;12856026;22;20619;-77
2022/08/24 03:52:16;;;;;;;7.75;6.13;;;;;17.20;101215.00;;;;12855026;22;20482;-77
2022/08/24 03:57:18;;;;;;;6.97;5.13;;;;;17.20;101214.00;;;;12899940;22;20182;-77
2022/08/24 04:02:20;;;;;;;6.77;5.03;;;;;17.10;101216.00;;;;12880535;22;20169;-77
2022/08/24 04:07:22;;;;;;;8.25;5.18;;;;;17.00;101213.00;;;;12880225;22;20200;-78
2022/08/24 04:12:23;;;;;;;5.87;5.27;;;;;16.90;101217.00;;;;12855559;22;20173;-78
2022/08/24 04:17:25;;;;;;;6.70;5.40;;;;;16.90;101221.00;;;;12879864;22;20217;-78
2022/08/24 04:22:29;;;;;;;9.73;5.23;;;;;16.90;101227.00;;;;12925178;22;20169;-77
2022/08/24 04:27:30;;;;;;;6.10;5.27;;;;;16.90;101226.00;;;;12854328;22;20196;-78
2022/08/24 04:32:32;;;;;;;6.75;6.05;;;;;16.90;101227.00;;;;12875583;22;20172;-77
2022/08/24 04:37:33;;;;;;;8.93;6.80;;;;;16.90;101222.00;;;;12900618;22;20220;-78
2022/08/24 04:42:36;;;;;;;11.27;6.30;;;;;16.90;101225.00;;;;12881266;22;20260;-77
2022/08/24 04:47:38;;;;;;;9.10;6.67;;;;;16.90;101223.00;;;;12874500;22;20169;-77
2022/08/24 04:52:39;;;;;;;8.67;6.97;;;;;16.90;101227.00;;;;12854068;22;20165;-78
2022/08/24 04:57:40;;;;;;;10.10;6.93;;;;;16.90;101229.00;;;;12878937;22;20185;-78
2022/08/24 05:02:42;;;;;;;11.02;6.95;;;;;17.00;101233.00;;;;12853794;22;20184;-78
2022/08/24 05:07:47;;;;;;;11.18;7.03;;;;;17.00;101232.00;;;;12853999;22;20754;-77
2022/08/24 05:12:48;;;;;;;8.87;6.90;;;;;17.10;101239.00;;;;12860098;22;20192;-77
2022/08/24 05:17:51;;;;;;;12.97;8.27;;;;;17.20;101239.00;;;;12856044;22;20189;-77
2022/08/24 05:22:54;;;;;;;16.80;9.07;;;;;17.40;101243.00;;;;12829534;22;20173;-77
2022/08/24 05:27:59;;;;;;;14.60;8.25;;;;;17.70;101249.00;;;;12852211;22;20177;-78
2022/08/24 05:33:00;;;;;;;10.25;8.70;;;;;18.00;101250.00;;;;12874117;22;20216;-78
2022/08/24 05:38:02;;;;;;;12.15;9.05;;;;;18.40;101241.00;;;;12878512;22;20855;-77
2022/08/24 05:43:08;;;;;;;10.60;8.68;;;;;18.70;101242.00;;;;12881023;22;20177;-78
2022/08/24 05:48:10;;;;;;;13.02;8.18;;;;;19.00;101248.00;;;;12827713;22;20173;-77
2022/08/24 05:53:30;;;;;;;11.57;9.98;;;;;19.40;101243.00;;;;12857641;22;20505;-78
2022/08/24 05:58:34;;;;;;;11.95;10.18;;;;;19.80;101250.00;;;;12900566;22;20219;-78
2022/08/24 06:03:38;;;;;;;10.77;9.10;;;;;20.20;101250.00;;;;12901297;22;20200;-78
2022/08/24 06:08:45;;;;;;;15.02;9.88;;;;;20.70;101252.00;;;;12927561;22;20188;-78
2022/08/24 06:13:47;;;;;;;13.43;11.10;;;;;21.20;101256.00;;;;12902760;22;20170;-78
2022/08/24 06:18:55;;;;;;;17.95;12.98;;;;;22.00;101255.00;;;;12881250;22;20193;-78
2022/08/24 06:23:59;;;;;;;20.95;14.55;;;;;22.80;101257.00;;;;12881344;22;20170;-77
2022/08/24 06:29:02;;;;;;;16.85;15.05;;;;;23.60;101263.00;;;;12903594;22;20165;-77
2022/08/24 06:34:06;;;;;;;19.88;15.45;;;;;24.30;101264.00;;;;12882661;22;20757;-78
2022/08/24 06:39:09;;;;;;;16.50;14.60;;;;;24.80;101271.00;;;;12902666;22;20185;-78
2022/08/24 06:44:16;;;;;;;21.25;18.70;;;;;24.70;101268.00;;;;12933316;22;20181;-78
2022/08/24 06:49:23;;;;;;;20.05;16.42;;;;;24.40;101278.00;;;;12888044;22;20170;-77
2022/08/24 06:54:24;;;;;;;18.75;16.77;;;;;24.60;101279.00;;;;12855589;22;20174;-77
2022/08/24 06:59:26;;;;;;;20.55;17.13;;;;;24.80;101274.00;;;;12879683;22;20201;-78
2022/08/24 07:04:28;;;;;;;22.63;18.70;;;;;25.30;101271.00;;;;12900115;22;20192;-78
2022/08/24 07:09:56;;;;;;;25.98;20.85;;;;;24.90;101281.00;;;;12836071;22;20187;-77
2022/08/24 07:14:57;;;;;;;26.27;19.52;;;;;25.00;101277.00;;;;12905479;22;20237;-78
2022/08/24 07:19:59;;;;;;;26.33;19.52;;;;;25.20;101282.00;;;;12874455;22;20781;-78
2022/08/24 07:25:32;;;;;;;26.17;21.35;;;;;25.00;101289.00;;;;12860907;22;20253;-78
2022/08/24 07:30:38;;;;;;;25.33;21.08;;;;;24.90;101286.00;;;;12900200;22;20534;-77
2022/08/24 07:35:40;;;;;;;27.52;22.35;;;;;25.20;101287.00;;;;12880416;22;20205;-77
2022/08/24 07:40:46;;;;;;;28.75;22.98;;;;;25.60;101294.00;;;;12856877;22;20726;-78
2022/08/24 07:46:08;;;;;;;27.92;24.92;;;;;26.10;101298.00;;;;12926236;22;20166;-77
2022/08/24 07:51:16;;;;;;;25.08;22.48;;;;;26.10;101301.00;;;;12855081;22;20178;-78
2022/08/24 07:56:18;;;;;;;28.20;23.20;;;;;26.20;101300.00;;;;12854228;22;20184;-78
2022/08/24 08:01:22;;;;;;;29.77;23.92;;;;;26.90;101295.00;;;;12854626;22;20225;-77
2022/08/24 08:06:24;;;;;;;24.75;22.25;;;;;27.50;101292.00;;;;12925535;22;20668;-77
2022/08/24 08:11:31;;;;;;;22.05;19.65;;;;;28.10;101302.00;;;;12854902;22;20229;-78
2022/08/24 08:16:33;;;;;;;24.02;18.85;;;;;27.60;101302.00;;;;12879148;22;20193;-78
2022/08/24 08:27:01;;;;;;;20.88;18.17;;;;;27.10;101305.00;;;;12923973;22;20177;-78
2022/08/24 08:32:15;;;;;;;20.60;17.35;;;;;27.10;101313.00;;;;12866677;22;20292;-78
2022/08/24 08:37:17;;;;;;;20.70;17.58;;;;;27.30;101312.00;;;;12872519;22;20194;-78
2022/08/24 08:42:43;;;;;;;18.50;16.45;;;;;27.40;101301.00;;;;12902286;22;20177;-78
2022/08/24 08:48:16;;;;;;;19.77;15.52;;;;;27.60;101306.00;;;;12852144;22;20177;-78
2022/08/24 08:53:44;;;;;;;20.17;17.50;;;;;27.60;101314.00;;;;12851700;22;20200;-78
2022/08/24 08:59:08;;;;;;;19.67;16.73;;;;;27.70;101305.00;;;;12875376;22;20201;-79
2022/08/24 09:04:43;;;;;;;18.85;16.90;;;;;27.80;101309.00;;;;12895326;22;20168;-78
2022/08/24 09:10:03;;;;;;;19.48;17.58;;;;;27.70;101324.00;;;;12877557;22;20268;-79
2022/08/24 09:15:29;;;;;;;23.23;16.52;;;;;27.50;101322.00;;;;12896179;22;20170;-78
2022/08/24 09:20:49;;;;;;;18.42;16.42;;;;;27.40;101322.00;;;;12919441;22;20832;-78
2022/08/24 09:26:04;;;;;;;17.50;15.65;;;;;27.50;101324.00;;;;12872752;22;20188;-77
2022/08/24 09:31:29;;;;;;;17.67;15.50;;;;;29.10;101318.00;;;;12826646;22;20430;-77
2022/08/24 09:36:47;;;;;;;18.65;14.98;;;;;30.20;101321.00;;;;12812702;22;20229;-77
2022/08/24 09:42:13;;;;;;;16.90;12.32;;;;;30.60;101306.00;;;;12811945;22;20201;-78
2022/08/24 09:47:23;;;;;;;13.88;10.82;;;;;31.50;101303.00;;;;12836129;22;20161;-77
2022/08/24 09:52:44;;;;;;;11.85;9.30;;;;;32.60;101301.00;;;;12789301;22;20178;-77
2022/08/24 09:58:15;;;;;;;11.02;7.55;;;;;33.30;101299.00;;;;12837345;22;20228;-77
2022/08/24 10:03:47;;;;;;;7.28;4.35;;;;;33.60;101301.00;;;;12858901;22;20612;-78
2022/08/24 10:09:20;;;;;;;7.60;3.88;;;;;33.70;101295.00;;;;12811635;22;20477;-77
2022/08/24 10:14:48;;;;;;;3.33;3.00;;;;;33.80;101286.00;;;;12786413;22;20170;-78
2022/08/24 10:20:08;;;;;;;4.88;2.90;;;;;34.00;101270.00;;;;12811481;22;20197;-77
2022/08/24 10:25:38;;;;;;;4.75;2.60;;;;;34.40;101274.00;;;;12860237;22;20245;-77
2022/08/24 10:31:10;;;;;;;5.05;3.30;;;;;34.80;101259.00;;;;12835253;22;20245;-77
2022/08/24 10:36:42;;;;;;;4.72;2.83;;;;;34.60;101264.00;;;;12835000;22;20248;-77
2022/08/24 10:41:49;;;;;;;4.53;2.30;;;;;34.80;101256.00;;;;12862250;22;20276;-78
2022/08/24 10:46:51;;;;;;;6.93;2.90;;;;;34.80;101247.00;;;;12788852;22;20173;-78
2022/08/24 10:52:41;;;;;;;6.15;2.40;;;;;34.90;101247.00;;;;12835876;22;20443;-78
2022/08/24 10:58:08;;;;;;;5.35;2.38;;;;;35.50;101244.00;;;;12813230;22;20193;-78
2022/08/24 11:03:25;;;;;;;4.70;2.55;;;;;35.60;101238.00;;;;12859120;22;20226;-78
2022/08/24 11:08:33;;;;;;;3.22;2.33;;;;;35.80;101239.00;;;;12813001;22;20177;-79
2022/08/24 11:13:38;;;;;;;6.47;2.00;;;;;36.00;101237.00;;;;12786926;23;20802;-79
2022/08/24 11:18:52;;;;;;;5.60;2.00;;;;;36.40;101225.00;;;;12805291;22;20794;-79
2022/08/24 11:24:01;;;;;;;4.00;2.55;;;;;36.40;101218.00;;;;12787653;22;20179;-79
2022/08/24 11:29:04;;;;;;;2.67;1.95;;;;;36.40;101220.00;;;;12813156;22;20741;-78
2022/08/24 11:34:09;;;;;;;3.13;1.90;;;;;36.50;101215.00;;;;12836690;22;20434;-77
2022/08/24 11:39:21;;;;;;;7.07;2.28;;;;;36.80;101214.00;;;;12834745;22;20194;-78
2022/08/24 11:45:14;;;;;;;3.40;2.13;;;;;36.10;101208.00;;;;12787722;22;20170;-78
2022/08/24 11:50:37;;;;;;;5.85;2.30;;;;;35.30;101189.00;;;;12788087;22;20178;-78
2022/08/24 11:56:12;;;;;;;3.70;1.80;;;;;36.30;101187.00;;;;12792876;22;20200;-79
2022/08/24 12:01:35;;;;;;;5.20;2.08;;;;;37.00;101185.00;;;;12842430;22;20204;-79
2022/08/24 12:06:58;;;;;;;2.90;2.10;;;;;36.90;101191.00;;;;12861233;22;20173;-78
2022/08/24 12:12:13;;;;;;;4.65;2.38;;;;;35.40;101178.00;;;;12834359;22;20431;-78
2022/08/24 12:17:22;;;;;;;3.45;1.60;;;;;35.50;101176.00;;;;12788664;22;20174;-78
2022/08/24 12:22:25;;;;;;;3.00;1.40;;;;;36.30;101171.00;;;;12790862;22;20182;-78
2022/08/24 12:27:31;;;;;;;3.10;1.65;;;;;36.80;101164.00;;;;12787178;22;20170;-78
2022/08/24 12:32:40;;;;;;;4.05;1.75;;;;;37.40;101163.00;;;;12811312;22;20484;-79
2022/08/24 12:37:53;;;;;;;2.45;1.40;;;;;37.40;101156.00;;;;12810509;22;20374;-78
2022/08/24 12:43:04;;;;;;;1.73;1.00;;;;;37.80;101150.00;;;;12814120;22;20176;-78
2022/08/24 12:48:05;;;;;;;2.65;1.20;;;;;37.90;101153.00;;;;12831384;22;20281;-78
2022/08/24 12:53:48;;;;;;;2.55;1.08;;;;;38.70;101149.00;;;;12812473;22;20691;-78
2022/08/24 12:59:06;;;;;;;2.63;0.85;;;;;39.00;101148.00;;;;12787941;22;20379;-78
2022/08/24 13:04:37;;;;;;;1.95;1.00;;;;;38.40;101153.00;;;;12807319;22;20173;-78
2022/08/24 13:10:01;;;;;;;2.55;0.98;;;;;38.50;101142.00;;;;12821839;22;20225;-78
2022/08/24 13:15:27;;;;;;;3.70;1.10;;;;;39.30;101134.00;;;;12784629;23;20174;-78
2022/08/24 13:20:34;;;;;;;3.67;1.08;;;;;39.10;101130.00;;;;12856646;22;20394;-79
2022/08/24 13:25:42;;;;;;;6.10;1.38;;;;;40.40;101127.00;;;;12837246;22;20180;-78
2022/08/24 13:31:20;;;;;;;2.08;1.10;;;;;41.30;101128.00;;;;12762592;22;20201;-78
2022/08/24 13:36:28;;;;;;;4.00;1.20;;;;;42.20;101126.00;;;;12787832;22;20193;-78
2022/08/24 13:41:54;;;;;;;2.47;1.27;;;;;42.90;101118.00;;;;12855290;22;20166;-78
2022/08/24 13:47:06;;;;;;;2.88;1.50;;;;;43.10;101111.00;;;;12809487;22;20174;-78
2022/08/24 13:52:23;;;;;;;2.70;1.20;;;;;41.80;101105.00;;;;12787201;22;20232;-78
2022/08/24 13:57:30;;;;;;;3.65;1.27;;;;;43.10;101115.00;;;;12813259;22;20180;-78
2022/08/24 14:02:58;;;;;;;2.10;1.45;;;;;40.10;101114.00;;;;12834027;22;20169;-78
2022/08/24 14:08:28;;;;;;;7.22;1.85;;;;;42.40;101093.00;;;;12857888;22;20178;-78
2022/08/24 14:13:49;;;;;;;2.20;1.15;;;;;43.90;101085.00;;;;12787803;22;20174;-78
2022/08/24 14:19:15;;;;;;;3.60;1.40;;;;;45.00;101084.00;;;;12833675;22;20185;-77
2022/08/24 14:24:39;;;;;;;2.60;1.17;;;;;45.70;101085.00;;;;12812973;22;20180;-77
2022/08/24 14:29:47;;;;;;;2.65;1.45;;;;;43.20;101106.00;;;;12817091;22;20631;-77
2022/08/24 14:35:21;;;;;;;1.98;1.40;;;;;41.20;101086.00;;;;12790094;22;20174;-77
2022/08/24 14:40:32;;;;;;;6.82;1.70;;;;;42.90;101066.00;;;;12854388;22;20177;-78
2022/08/24 14:45:40;;;;;;;2.97;1.35;;;;;41.70;101072.00;;;;12813788;23;20170;-78
2022/08/24 14:51:03;;;;;;;3.92;1.30;;;;;39.40;101078.00;;;;12810064;22;20190;-78
2022/08/24 14:56:43;;;;;;;3.85;1.75;;;;;38.50;101068.00;;;;12836101;22;20175;-78
2022/08/24 15:01:48;;;;;;;4.20;1.92;;;;;35.80;101062.00;;;;12787981;22;20266;-77
2022/08/24 15:06:52;;;;;;;4.75;1.60;;;;;33.90;101055.00;;;;12813367;22;21113;-78
2022/08/24 15:12:03;;;;;;;2.45;1.38;;;;;33.00;101064.00;;;;12789988;22;20266;-78
2022/08/24 15:17:10;;;;;;;5.40;1.80;;;;;32.70;101054.00;;;;12840808;22;20193;-78
2022/08/24 15:22:28;;;;;;;3.67;1.63;;;;;32.50;101060.00;;;;12792454;22;20205;-77
2022/08/24 15:27:47;;;;;;;5.28;1.70;;;;;32.40;101056.00;;;;12863473;22;20577;-78
2022/08/24 15:32:54;;;;;;;2.65;1.50;;;;;32.30;101059.00;;;;12792914;22;20229;-78
2022/08/24 15:37:56;;;;;;;3.15;1.60;;;;;32.10;101055.00;;;;12793316;22;20194;-77
2022/08/24 15:43:02;;;;;;;3.13;1.80;;;;;32.10;101051.00;;;;12817890;22;20174;-78
2022/08/24 15:48:05;;;;;;;5.13;1.60;;;;;32.00;101056.00;;;;12840580;22;20190;-78
2022/08/24 15:53:23;;;;;;;5.10;2.20;;;;;31.90;101045.00;;;;12817691;22;20537;-78
2022/08/24 15:58:35;;;;;;;2.67;2.10;;;;;31.70;101048.00;;;;12792215;22;20181;-78
2022/08/24 16:03:56;;;;;;;4.57;1.83;;;;;31.50;101046.00;;;;12790350;22;20248;-78
2022/08/24 16:09:07;;;;;;;6.88;2.17;;;;;31.50;101046.00;;;;12864750;22;20214;-78
2022/08/24 16:14:24;;;;;;;5.18;2.10;;;;;31.80;101050.00;;;;12862270;22;20640;-78
2022/08/24 16:19:32;;;;;;;2.90;1.58;;;;;32.10;101048.00;;;;12836689;22;20173;-78
2022/08/24 16:24:37;;;;;;;3.70;1.48;;;;;32.60;101052.00;;;;12815695;22;20827;-78
2022/08/24 16:29:40;;;;;;;2.35;1.55;;;;;32.90;101042.00;;;;12766829;22;20205;-78
2022/08/24 16:34:44;;;;;;;4.18;1.55;;;;;33.10;101044.00;;;;12816521;22;20895;-78
2022/08/24 16:39:47;;;;;;;3.38;1.60;;;;;33.20;101041.00;;;;12861572;22;20190;-77
2022/08/24 16:44:48;;;;;;;4.47;1.70;;;;;33.10;101045.00;;;;12791111;22;20178;-78
2022/08/24 16:49:50;;;;;;;4.03;1.80;;;;;32.80;101037.00;;;;12810220;22;20217;-78
2022/08/24 16:54:51;;;;;;;4.63;1.67;;;;;32.50;101039.00;;;;12841163;22;20180;-77
2022/08/24 16:59:52;;;;;;;3.88;1.70;;;;;32.20;101029.00;;;;12817208;22;20169;-78
2022/08/24 17:04:54;;;;;;;8.73;1.52;;;;;31.90;101029.00;;;;12836388;22;20215;-77
2022/08/24 17:09:56;;;;;;;2.55;1.90;;;;;31.60;101041.00;;;;12840433;22;20277;-78
2022/08/24 17:14:58;;;;;;;3.33;1.83;;;;;31.30;101045.00;;;;12837230;22;20166;-77
2022/08/24 17:19:59;;;;;;;1.90;1.75;;;;;31.00;101042.00;;;;12840792;22;20174;-78
2022/08/24 17:25:00;;;;;;;2.13;1.90;;;;;30.80;101045.00;;;;12766640;22;20631;-78
2022/08/24 17:30:04;;;;;;;4.38;1.70;;;;;30.60;101047.00;;;;12839900;22;20765;-77
2022/08/24 17:35:06;;;;;;;2.83;1.75;;;;;30.40;101045.00;;;;12838997;22;20162;-77
2022/08/24 17:40:11;;;;;;;4.50;1.98;;;;;30.10;101057.00;;;;12860907;22;20177;-78
2022/08/24 17:45:12;;;;;;;4.18;2.00;;;;;29.80;101050.00;;;;12789923;22;20486;-78
2022/08/24 17:50:14;;;;;;;5.20;2.50;;;;;29.40;101053.00;;;;12764944;22;20943;-77
2022/08/24 17:55:16;;;;;;;4.20;2.05;;;;;29.10;101063.00;;;;12862187;22;20201;-77
2022/08/24 18:00:24;;;;;;;3.95;2.03;;;;;28.90;101062.00;;;;12767505;22;20174;-78
2022/08/24 18:05:26;;;;;;;3.60;2.00;;;;;28.70;101065.00;;;;12790921;22;20177;-77
2022/08/24 18:10:30;;;;;;;3.08;1.70;;;;;28.40;101067.00;;;;12789155;22;20202;-78
2022/08/24 18:15:35;;;;;;;6.57;2.05;;;;;28.20;101073.00;;;;12815060;22;20175;-78
2022/08/24 18:20:40;;;;;;;3.25;2.28;;;;;28.00;101082.00;;;;12809189;22;20167;-78
2022/08/24 18:25:46;;;;;;;3.78;2.10;;;;;27.80;101086.00;;;;12836284;22;20245;-77
2022/08/24 18:30:47;;;;;;;2.95;2.22;;;;;27.60;101087.00;;;;12790303;22;20217;-77
2022/08/24 18:35:48;;;;;;;6.65;2.00;;;;;27.40;101089.00;;;;12789610;22;20294;-78
2022/08/24 18:40:50;;;;;;;3.85;2.30;;;;;27.20;101088.00;;;;12811009;22;20190;-78
2022/08/24 18:45:54;;;;;;;6.55;2.70;;;;;26.90;101087.00;;;;12818050;22;20171;-77
2022/08/24 18:50:56;;;;;;;7.88;2.50;;;;;26.70;101090.00;;;;12842228;22;20201;-77
2022/08/24 18:55:57;;;;;;;2.67;2.13;;;;;26.50;101090.00;;;;12816983;22;20216;-78
2022/08/24 19:01:05;;;;;;;8.55;2.58;;;;;26.30;101103.00;;;;12793510;22;20170;-77
2022/08/24 19:06:07;;;;;;;3.97;2.15;;;;;26.20;101095.00;;;;12817317;22;20193;-77
2022/08/24 19:11:09;;;;;;;4.20;2.28;;;;;26.10;101096.00;;;;12839011;22;20744;-77
2022/08/24 19:16:10;;;;;;;4.90;2.00;;;;;26.00;101107.00;;;;12842396;22;20170;-78
2022/08/24 19:21:11;;;;;;;4.40;2.55;;;;;25.90;101119.00;;;;12818027;22;20276;-77
2022/08/24 19:26:13;;;;;;;6.75;2.53;;;;;25.80;101118.00;;;;12838380;22;20777;-78
2022/08/24 19:31:17;;;;;;;3.35;2.30;;;;;25.70;101119.00;;;;12820319;22;20174;-77
2022/08/24 19:36:20;;;;;;;7.60;2.22;;;;;25.50;101119.00;;;;12794848;22;20190;-77
2022/08/24 19:41:22;;;;;;;9.68;2.40;;;;;25.40;101112.00;;;;12820017;22;20198;-78
2022/08/24 19:46:34;;;;;;;5.18;2.60;;;;;25.30;101121.00;;;;12819560;22;20463;-78
2022/08/24 19:51:37;;;;;;;2.63;2.38;;;;;25.20;101125.00;;;;12818434;22;20177;-78
2022/08/24 19:56:38;;;;;;;2.67;2.45;;;;;25.10;101113.00;;;;12814049;22;20168;-78
2022/08/24 20:01:40;;;;;;;4.75;2.67;;;;;25.00;101120.00;;;;12819632;22;20204;-77
2022/08/24 20:06:41;;;;;;;6.57;3.05;;;;;24.90;101110.00;;;;12768097;22;20166;-78
2022/08/24 20:11:43;;;;;;;6.65;2.85;;;;;24.80;101117.00;;;;12816663;22;20252;-78
2022/08/24 20:16:44;;;;;;;4.80;2.90;;;;;24.60;101115.00;;;;12865111;22;20521;-77
2022/08/24 20:21:46;;;;;;;7.55;2.50;;;;;24.50;101120.00;;;;12864972;22;20190;-79
2022/08/24 20:26:48;;;;;;;6.90;2.50;;;;;24.30;101122.00;;;;12817898;22;20189;-78
2022/08/24 20:31:51;;;;;;;5.28;2.60;;;;;24.10;101123.00;;;;12867785;22;20174;-77
2022/08/24 20:36:52;;;;;;;4.80;2.72;;;;;24.00;101124.00;;;;12865614;22;20190;-79
2022/08/24 20:41:55;;;;;;;4.85;2.60;;;;;23.80;101133.00;;;;12816986;22;20189;-78
2022/08/24 20:46:57;;;;;;;4.25;2.47;;;;;23.60;101132.00;;;;12782203;22;20369;-79
2022/08/24 20:52:00;;;;;;;5.40;2.88;;;;;23.40;101125.00;;;;12788323;22;20177;-79
2022/08/24 20:57:03;;;;;;;7.20;3.63;;;;;23.30;101127.00;;;;12836295;22;20275;-79
2022/08/24 21:02:05;;;;;;;3.08;2.80;;;;;23.20;101124.00;;;;12789883;22;20222;-79
2022/08/24 21:07:10;;;;;;;4.30;2.60;;;;;23.10;101123.00;;;;12860845;22;20201;-79
2022/08/24 21:12:11;;;;;;;4.35;3.03;;;;;23.00;101120.00;;;;12809415;22;20174;-78
2022/08/24 21:17:13;;;;;;;5.78;3.33;;;;;22.80;101127.00;;;;12789842;22;20582;-78
2022/08/24 21:22:14;;;;;;;10.35;3.38;;;;;22.70;101120.00;;;;12810688;22;20209;-78
2022/08/24 21:27:17;;;;;;;6.25;3.28;;;;;22.60;101130.00;;;;12791511;22;20227;-78
2022/08/24 21:37:38;;;;;;;4.05;3.65;;;;;22.40;101138.00;;;;12789750;22;20815;-79
2022/08/24 21:42:40;;;;;;;5.35;3.58;;;;;22.30;101140.00;;;;12790232;22;20212;-78
2022/08/24 21:47:44;;;;;;;14.73;3.75;;;;;22.30;101138.00;;;;12810992;22;20959;-78
2022/08/24 21:52:45;;;;;;;7.65;3.45;;;;;22.20;101146.00;;;;12790544;23;20174;-79
2022/08/24 21:57:52;;;;;;;5.82;3.97;;;;;22.10;101138.00;;;;12815157;22;20170;-79
2022/08/24 22:02:54;;;;;;;8.73;3.75;;;;;21.90;101142.00;;;;12835397;22;20177;-79
2022/08/24 22:07:57;;;;;;;6.05;3.67;;;;;21.80;101143.00;;;;12811099;22;20673;-77
2022/08/24 22:12:58;;;;;;;6.32;3.75;;;;;21.70;101140.00;;;;12812800;22;20170;-79
2022/08/24 22:24:17;;;;;;;6.75;4.32;;;;;21.40;101134.00;;;;12795155;22;20186;-79
2022/08/24 22:29:19;;;;;;;11.40;4.93;;;;;21.30;101135.00;;;;12792741;22;20224;-79
2022/08/24 22:34:20;;;;;;;6.72;4.68;;;;;21.20;101126.00;;;;12767353;23;20457;-78
2022/08/24 22:39:21;;;;;;;6.88;4.15;;;;;21.20;101124.00;;;;12790751;22;20198;-79
2022/08/24 22:44:24;;;;;;;6.63;4.05;;;;;21.10;101122.00;;;;12815498;22;20193;-79
2022/08/24 22:49:28;;;;;;;5.85;4.38;;;;;21.10;101120.00;;;;12791938;22;20192;-78
2022/08/24 22:54:29;;;;;;;7.28;5.10;;;;;21.00;101117.00;;;;12838736;22;20166;-79
2022/08/24 22:59:41;;;;;;;8.77;4.72;;;;;20.80;101114.00;;;;12767396;22;20196;-79
2022/08/24 23:04:46;;;;;;;9.02;5.55;;;;;20.70;101121.00;;;;12815681;22;20202;-79
2022/08/24 23:09:48;;;;;;;8.27;5.60;;;;;20.60;101128.00;;;;12813281;22;20167;-79
2022/08/24 23:14:51;;;;;;;7.22;5.03;;;;;20.60;101124.00;;;;12790928;22;20245;-79
2022/08/24 23:20:05;;;;;;;7.85;5.72;;;;;20.50;101120.00;;;;12816368;22;20190;-79
2022/08/24 23:25:09;;;;;;;10.30;5.63;;;;;20.50;101124.00;;;;12814594;22;20232;-79
2022/08/24 23:30:12;;;;;;;9.98;5.38;;;;;20.40;101117.00;;;;12790779;22;20261;-79
2022/08/24 23:35:14;;;;;;;8.85;6.22;;;;;20.30;101112.00;;;;12791944;22;20579;-79
2022/08/24 23:40:17;;;;;;;7.07;6.15;;;;;20.20;101114.00;;;;12764560;22;20288;-78
2022/08/24 23:45:19;;;;;;;10.52;6.25;;;;;20.20;101105.00;;;;12861757;22;20170;-78
2022/08/24 23:50:29;;;;;;;7.35;5.70;;;;;20.10;101114.00;;;;12767400;22;20174;-78
2022/08/24 23:55:30;;;;;;;7.32;5.45;;;;;20.10;101104.00;;;;12835708;22;20531;-78
